sensor_id;sensor_type;location;lat;lon;timestamp;pressure;altitude;pressure_sealevel;temperature
25514;BMP180;48128;54.242;10.280;2023-03-23T17:14:00;99753.00;;;11.40
25514;BMP180;48128;54.242;10.280;2023-03-23T17:16:27;99748.00;;;11.30
25514;BMP180;48128;54.242;10.280;2023-03-23T17:18:54;99749.00;;;11.20
25514;BMP180;48128;54.242;10.280;2023-03-23T17:21:21;99761.00;;;11.10
25514;BMP180;48128;54.242;10.280;2023-03-23T17:23:51;99752.00;;;11.00
25514;BMP180;48128;54.242;10.280;2023-03-23T17:26:18;99744.00;;;10.90
25514;BMP180;48128;54.242;10.280;2023-03-23T17:28:45;99744.00;;;10.80
25514;BMP180;48128;54.242;10.280;2023-03-23T17:31:12;99744.00;;;10.80
25514;BMP180;48128;54.242;10.280;2023-03-23T17:33:40;99751.00;;;10.70
25514;BMP180;48128;54.242;10.280;2023-03-23T17:36:08;99743.00;;;10.60
25514;BMP180;48128;54.242;10.280;2023-03-23T17:38:35;99745.00;;;10.50
25514;BMP180;48128;54.242;10.280;2023-03-23T17:41:02;99745.00;;;10.40
25514;BMP180;48128;54.242;10.280;2023-03-23T17:43:33;99750.00;;;10.40
25514;BMP180;48128;54.242;10.280;2023-03-23T17:46:02;99734.00;;;10.30
25514;BMP180;48128;54.242;10.280;2023-03-23T17:48:29;99747.00;;;10.20
25514;BMP180;48128;54.242;10.280;2023-03-23T17:50:59;99750.00;;;10.10
25514;BMP180;48128;54.242;10.280;2023-03-23T17:53:30;99744.00;;;10.00
25514;BMP180;48128;54.242;10.280;2023-03-23T17:55:58;99744.00;;;9.90
25514;BMP180;48128;54.242;10.280;2023-03-23T17:58:25;99761.00;;;9.80
25514;BMP180;48128;54.242;10.280;2023-03-23T18:00:55;99753.00;;;9.70
25514;BMP180;48128;54.242;10.280;2023-03-23T18:03:23;99754.00;;;9.60
25514;BMP180;48128;54.242;10.280;2023-03-23T18:05:54;99748.00;;;9.50
25514;BMP180;48128;54.242;10.280;2023-03-23T18:08:23;99754.00;;;9.50
25514;BMP180;48128;54.242;10.280;2023-03-23T18:10:51;99750.00;;;9.40
25514;BMP180;48128;54.242;10.280;2023-03-23T18:13:20;99762.00;;;9.40
25514;BMP180;48128;54.242;10.280;2023-03-23T18:15:47;99765.00;;;9.40
25514;BMP180;48128;54.242;10.280;2023-03-23T18:18:14;99787.00;;;9.30
25514;BMP180;48128;54.242;10.280;2023-03-23T18:20:41;99782.00;;;9.30
25514;BMP180;48128;54.242;10.280;2023-03-23T18:23:08;99773.00;;;9.30
25514;BMP180;48128;54.242;10.280;2023-03-23T18:25:37;99776.00;;;9.20
25514;BMP180;48128;54.242;10.280;2023-03-23T18:28:04;99777.00;;;9.10
25514;BMP180;48128;54.242;10.280;2023-03-23T18:30:33;99790.00;;;9.10
25514;BMP180;48128;54.242;10.280;2023-03-23T18:33:00;99792.00;;;9.00
25514;BMP180;48128;54.242;10.280;2023-03-23T18:35:27;99786.00;;;9.00
25514;BMP180;48128;54.242;10.280;2023-03-23T18:37:54;99790.00;;;9.00
25514;BMP180;48128;54.242;10.280;2023-03-23T18:40:21;99785.00;;;9.00
25514;BMP180;48128;54.242;10.280;2023-03-23T18:42:48;99773.00;;;9.00
25514;BMP180;48128;54.242;10.280;2023-03-23T18:45:15;99778.00;;;9.10
25514;BMP180;48128;54.242;10.280;2023-03-23T18:47:42;99762.00;;;9.20
25514;BMP180;48128;54.242;10.280;2023-03-23T18:50:10;99776.00;;;9.30
25514;BMP180;48128;54.242;10.280;2023-03-23T18:52:37;99779.00;;;9.30
25514;BMP180;48128;54.242;10.280;2023-03-23T18:55:04;99775.00;;;9.30
25514;BMP180;48128;54.242;10.280;2023-03-23T18:57:31;99775.00;;;9.40
25514;BMP180;48128;54.242;10.280;2023-03-23T18:59:58;99772.00;;;9.40
25514;BMP180;48128;54.242;10.280;2023-03-23T19:02:25;99766.00;;;9.40
25514;BMP180;48128;54.242;10.280;2023-03-23T19:04:52;99775.00;;;9.40
25514;BMP180;48128;54.242;10.280;2023-03-23T19:07:19;99763.00;;;9.40
25514;BMP180;48128;54.242;10.280;2023-03-23T19:09:46;99763.00;;;9.40
25514;BMP180;48128;54.242;10.280;2023-03-23T19:12:14;99768.00;;;9.40
25514;BMP180;48128;54.242;10.280;2023-03-23T19:14:41;99768.00;;;9.40
25514;BMP180;48128;54.242;10.280;2023-03-23T19:17:08;99768.00;;;9.40
25514;BMP180;48128;54.242;10.280;2023-03-23T19:19:36;99760.00;;;9.40
25514;BMP180;48128;54.242;10.280;2023-03-23T19:22:04;99774.00;;;9.40
25514;BMP180;48128;54.242;10.280;2023-03-23T19:24:32;99770.00;;;9.40
25514;BMP180;48128;54.242;10.280;2023-03-23T19:26:59;99771.00;;;9.40
25514;BMP180;48128;54.242;10.280;2023-03-23T19:29:27;99769.00;;;9.40
25514;BMP180;48128;54.242;10.280;2023-03-23T19:31:55;99785.00;;;9.30
25514;BMP180;48128;54.242;10.280;2023-03-23T19:34:23;99781.00;;;9.30
25514;BMP180;48128;54.242;10.280;2023-03-23T19:36:51;99787.00;;;9.30
25514;BMP180;48128;54.242;10.280;2023-03-23T19:39:29;99773.00;;;9.30
25514;BMP180;48128;54.242;10.280;2023-03-23T19:41:57;99776.00;;;9.30
25514;BMP180;48128;54.242;10.280;2023-03-23T19:44:24;99788.00;;;9.30
25514;BMP180;48128;54.242;10.280;2023-03-23T19:46:52;99785.00;;;9.40
25514;BMP180;48128;54.242;10.280;2023-03-23T19:49:19;99787.00;;;9.30
25514;BMP180;48128;54.242;10.280;2023-03-23T19:51:46;99798.00;;;9.30
25514;BMP180;48128;54.242;10.280;2023-03-23T19:54:13;99791.00;;;9.30
25514;BMP180;48128;54.242;10.280;2023-03-23T19:56:40;99796.00;;;9.30
25514;BMP180;48128;54.242;10.280;2023-03-23T19:59:13;99805.00;;;9.20
25514;BMP180;48128;54.242;10.280;2023-03-23T20:01:42;99810.00;;;9.20
25514;BMP180;48128;54.242;10.280;2023-03-23T20:04:10;99788.00;;;9.20
25514;BMP180;48128;54.242;10.280;2023-03-23T20:06:37;99781.00;;;9.20
25514;BMP180;48128;54.242;10.280;2023-03-23T20:09:04;99780.00;;;9.30
25514;BMP180;48128;54.242;10.280;2023-03-23T20:11:32;99787.00;;;9.30
25514;BMP180;48128;54.242;10.280;2023-03-23T20:14:00;99788.00;;;9.30
25514;BMP180;48128;54.242;10.280;2023-03-23T20:16:27;99786.00;;;9.30
25514;BMP180;48128;54.242;10.280;2023-03-23T20:18:55;99784.00;;;9.30
25514;BMP180;48128;54.242;10.280;2023-03-23T20:21:26;99788.00;;;9.40
25514;BMP180;48128;54.242;10.280;2023-03-23T20:23:57;99784.00;;;9.40
25514;BMP180;48128;54.242;10.280;2023-03-23T20:26:29;99774.00;;;9.40
25514;BMP180;48128;54.242;10.280;2023-03-23T20:28:58;99769.00;;;9.50
25514;BMP180;48128;54.242;10.280;2023-03-23T20:31:28;99768.00;;;9.40
25514;BMP180;48128;54.242;10.280;2023-03-23T20:33:58;99777.00;;;9.40
25514;BMP180;48128;54.242;10.280;2023-03-23T20:36:34;99770.00;;;9.40
25514;BMP180;48128;54.242;10.280;2023-03-23T20:39:07;99768.00;;;9.30
25514;BMP180;48128;54.242;10.280;2023-03-23T20:41:36;99776.00;;;9.30
25514;BMP180;48128;54.242;10.280;2023-03-23T20:44:09;99767.00;;;9.30
25514;BMP180;48128;54.242;10.280;2023-03-23T20:46:46;99777.00;;;9.20
25514;BMP180;48128;54.242;10.280;2023-03-23T20:49:13;99778.00;;;9.20
25514;BMP180;48128;54.242;10.280;2023-03-23T20:51:41;99779.00;;;9.20
25514;BMP180;48128;54.242;10.280;2023-03-23T20:54:12;99780.00;;;9.10
25514;BMP180;48128;54.242;10.280;2023-03-23T20:56:42;99771.00;;;9.10
25514;BMP180;48128;54.242;10.280;2023-03-23T20:59:09;99784.00;;;9.10
25514;BMP180;48128;54.242;10.280;2023-03-23T21:01:36;99776.00;;;9.10
25514;BMP180;48128;54.242;10.280;2023-03-23T21:04:07;99787.00;;;9.10
25514;BMP180;48128;54.242;10.280;2023-03-23T21:06:42;99790.00;;;9.10
25514;BMP180;48128;54.242;10.280;2023-03-23T21:09:09;99785.00;;;9.10
25514;BMP180;48128;54.242;10.280;2023-03-23T21:11:36;99773.00;;;9.10
25514;BMP180;48128;54.242;10.280;2023-03-23T21:14:04;99776.00;;;9.10
25514;BMP180;48128;54.242;10.280;2023-03-23T21:16:31;99776.00;;;9.10
25514;BMP180;48128;54.242;10.280;2023-03-23T21:18:58;99783.00;;;9.10
25514;BMP180;48128;54.242;10.280;2023-03-23T21:21:25;99771.00;;;9.10
25514;BMP180;48128;54.242;10.280;2023-03-23T21:23:53;99783.00;;;9.10
25514;BMP180;48128;54.242;10.280;2023-03-23T21:26:25;99782.00;;;9.20
25514;BMP180;48128;54.242;10.280;2023-03-23T21:28:53;99781.00;;;9.20
25514;BMP180;48128;54.242;10.280;2023-03-23T21:31:27;99783.00;;;9.20
25514;BMP180;48128;54.242;10.280;2023-03-23T21:33:59;99776.00;;;9.20
25514;BMP180;48128;54.242;10.280;2023-03-23T21:36:26;99775.00;;;9.20
25514;BMP180;48128;54.242;10.280;2023-03-23T21:38:54;99769.00;;;9.10
25514;BMP180;48128;54.242;10.280;2023-03-23T21:41:22;99765.00;;;9.10
25514;BMP180;48128;54.242;10.280;2023-03-23T21:43:49;99771.00;;;9.20
25514;BMP180;48128;54.242;10.280;2023-03-23T21:46:17;99761.00;;;9.20
25514;BMP180;48128;54.242;10.280;2023-03-23T21:48:45;99764.00;;;9.20
25514;BMP180;48128;54.242;10.280;2023-03-23T21:51:20;99758.00;;;9.20
25514;BMP180;48128;54.242;10.280;2023-03-23T21:53:48;99768.00;;;9.20
25514;BMP180;48128;54.242;10.280;2023-03-23T21:56:16;99768.00;;;9.20
25514;BMP180;48128;54.242;10.280;2023-03-23T21:58:43;99755.00;;;9.20
25514;BMP180;48128;54.242;10.280;2023-03-23T22:01:10;99763.00;;;9.20
25514;BMP180;48128;54.242;10.280;2023-03-23T22:03:39;99763.00;;;9.30
25514;BMP180;48128;54.242;10.280;2023-03-23T22:06:15;99772.00;;;9.30
25514;BMP180;48128;54.242;10.280;2023-03-23T22:08:44;99760.00;;;9.30
25514;BMP180;48128;54.242;10.280;2023-03-23T22:11:20;99748.00;;;9.30
25514;BMP180;48128;54.242;10.280;2023-03-23T22:13:49;99758.00;;;9.20
25514;BMP180;48128;54.242;10.280;2023-03-23T22:16:17;99751.00;;;9.20
25514;BMP180;48128;54.242;10.280;2023-03-23T22:18:45;99737.00;;;9.20
25514;BMP180;48128;54.242;10.280;2023-03-23T22:21:14;99734.00;;;9.30
25514;BMP180;48128;54.242;10.280;2023-03-23T22:23:42;99733.00;;;9.20
25514;BMP180;48128;54.242;10.280;2023-03-23T22:26:10;99716.00;;;9.20
25514;BMP180;48128;54.242;10.280;2023-03-23T22:28:38;99719.00;;;9.20
25514;BMP180;48128;54.242;10.280;2023-03-23T22:31:17;99710.00;;;9.20
25514;BMP180;48128;54.242;10.280;2023-03-23T22:33:45;99709.00;;;9.20
25514;BMP180;48128;54.242;10.280;2023-03-23T22:36:14;99699.00;;;9.20
25514;BMP180;48128;54.242;10.280;2023-03-23T22:38:43;99694.00;;;9.20
25514;BMP180;48128;54.242;10.280;2023-03-23T22:41:18;99697.00;;;9.20
